Time;durP1;ratioP1;P1;durP2;ratioP2;P2;SDS_P1;SDS_P2;PMS_P1;PMS_P2;Temp;Humidity;BMP_temperature;BMP_pressure;BME280_temperature;BME280_humidity;BME280_pressure;Samples;Min_cycle;Max_cycle;Signal;HPM_P1;HPM_P2
2023/09/30 00:00:11;;;;;;;9.10;3.37;;;16.60;89.90;;;16.20;85.61;98598.69;5086397;28;21005;-77
2023/09/30 00:02:40;;;;;;;5.17;3.07;;;16.50;90.10;;;16.18;86.11;98604.34;5085422;28;20971;-77
2023/09/30 00:05:09;;;;;;;7.17;3.67;;;16.50;90.30;;;16.24;85.87;98610.75;5088761;28;20795;-76
2023/09/30 00:07:37;;;;;;;7.73;3.97;;;16.40;90.40;;;16.04;87.16;98603.78;5087796;28;20577;-76
2023/09/30 00:10:04;;;;;;;6.60;3.53;;;16.40;90.70;;;15.99;87.27;98606.34;5085343;28;20940;-76
2023/09/30 00:12:31;;;;;;;6.57;3.67;;;16.20;90.90;;;15.90;87.70;98600.44;5080099;28;20462;-76
2023/09/30 00:14:59;;;;;;;6.90;3.10;;;16.20;91.20;;;15.88;88.18;98607.19;5084797;28;20482;-76
2023/09/30 00:17:26;;;;;;;8.50;3.87;;;16.10;91.60;;;15.40;88.53;98517.25;5088086;28;20512;-76
2023/09/30 00:19:54;;;;;;;8.43;3.63;;;16.10;92.10;;;15.92;88.69;98597.50;5086315;28;20453;-77
2023/09/30 00:22:22;;;;;;;9.90;3.87;;;16.10;92.10;;;15.89;88.16;98597.94;5087889;28;20477;-75
2023/09/30 00:24:49;;;;;;;7.20;3.70;;;16.10;91.90;;;15.93;88.12;98610.03;5087179;28;20463;-75
2023/09/30 00:27:16;;;;;;;6.23;3.50;;;16.10;92.10;;;15.82;88.86;98596.13;5086865;28;20482;-76
2023/09/30 00:29:43;;;;;;;5.57;3.40;;;16.00;92.20;;;15.75;89.32;98592.72;5086172;28;20525;-75
2023/09/30 00:32:10;;;;;;;5.70;3.57;;;16.00;92.50;;;15.82;89.35;98607.03;5082131;28;20530;-76
2023/09/30 00:34:38;;;;;;;7.90;3.90;;;16.00;92.60;;;15.84;89.59;98610.34;5087143;28;20588;-77
2023/09/30 00:37:06;;;;;;;7.53;3.33;;;16.00;92.70;;;15.99;88.58;98598.19;5088000;28;20518;-76
2023/09/30 00:39:34;;;;;;;7.03;3.70;;;16.10;92.70;;;16.04;88.25;98606.50;5084427;28;20453;-76
2023/09/30 00:42:03;;;;;;;10.33;4.17;;;16.10;92.40;;;15.48;88.23;98516.88;5086250;28;20483;-77
2023/09/30 00:44:30;;;;;;;7.10;3.60;;;16.20;92.10;;;16.26;86.85;98614.06;5093630;28;20445;-76
2023/09/30 00:46:58;;;;;;;7.10;3.20;;;16.30;91.90;;;16.17;86.66;98610.06;5105804;28;20498;-75
2023/09/30 00:49:27;;;;;;;6.80;4.10;;;16.30;91.60;;;16.26;86.22;98604.00;5101893;28;20513;-74
2023/09/30 00:51:56;;;;;;;8.87;3.77;;;16.40;91.60;;;16.40;85.62;98607.28;5105199;28;20456;-76
2023/09/30 00:54:26;;;;;;;7.70;3.97;;;16.50;91.40;;;16.36;85.80;98606.13;5105729;28;20436;-74
2023/09/30 00:56:56;;;;;;;7.07;3.13;;;16.60;91.30;;;16.50;85.25;98608.59;5103509;28;20533;-76
2023/09/30 00:59:26;;;;;;;4.30;3.10;;;16.60;91.10;;;16.62;84.57;98606.69;5111708;28;20931;-77
2023/09/30 01:01:56;;;;;;;5.10;3.07;;;16.70;91.00;;;16.66;83.84;98587.91;5087960;28;20448;-75
2023/09/30 01:04:25;;;;;;;5.50;3.73;;;16.80;90.90;;;16.73;83.29;98595.97;5086520;28;21245;-77
2023/09/30 01:06:53;;;;;;;6.87;3.77;;;16.90;90.70;;;16.65;83.71;98595.28;5074918;28;20509;-75
2023/09/30 01:09:20;;;;;;;7.07;3.17;;;16.90;90.70;;;16.75;83.54;98605.56;5082923;28;20533;-77
2023/09/30 01:11:49;;;;;;;8.80;3.77;;;16.90;90.70;;;16.80;82.99;98605.66;5084551;28;20489;-76
2023/09/30 01:14:26;;;;;;;6.13;3.30;;;16.90;90.60;;;16.70;83.84;98611.75;5086440;28;20457;-76
2023/09/30 01:16:54;;;;;;;7.63;3.70;;;16.80;90.70;;;16.65;83.67;98610.81;5085117;28;20457;-76
2023/09/30 01:19:24;;;;;;;8.10;3.80;;;16.90;90.60;;;16.59;84.14;98601.69;5084088;28;20448;-75
2023/09/30 01:21:54;;;;;;;7.00;3.90;;;16.80;90.70;;;16.90;82.94;98610.50;5083245;28;20441;-75
2023/09/30 01:24:22;;;;;;;9.73;3.80;;;17.00;90.60;;;16.83;82.84;98598.91;5100405;28;20565;-76
2023/09/30 01:26:49;;;;;;;7.40;3.90;;;17.00;90.50;;;16.65;83.73;98606.19;5092389;28;20468;-77
2023/09/30 01:29:17;;;;;;;5.93;3.43;;;16.90;90.60;;;16.76;83.63;98600.97;5104611;28;20516;-76
2023/09/30 01:31:47;;;;;;;4.97;3.10;;;16.90;90.60;;;16.75;83.45;98602.00;5103741;28;20493;-75
2023/09/30 01:34:15;;;;;;;6.70;3.70;;;16.90;90.60;;;16.83;83.30;98601.63;5093117;28;20455;-75
2023/09/30 01:36:42;;;;;;;7.07;3.60;;;16.80;90.60;;;16.74;83.54;98605.81;5088540;28;20481;-75
2023/09/30 01:39:12;;;;;;;6.53;3.70;;;16.80;90.70;;;16.77;83.43;98610.81;5086175;28;20452;-77
2023/09/30 01:41:39;;;;;;;7.10;3.37;;;16.80;90.70;;;16.84;82.85;98603.28;5085760;28;20462;-76
2023/09/30 01:44:06;;;;;;;7.57;4.00;;;16.90;90.80;;;16.90;82.67;98613.22;5086287;28;20465;-76
2023/09/30 01:46:34;;;;;;;8.30;3.90;;;16.90;90.60;;;16.83;83.32;98602.47;5085581;28;20997;-77
2023/09/30 01:49:01;;;;;;;5.90;3.50;;;16.90;90.70;;;16.84;83.43;98606.03;5085361;28;20457;-75
2023/09/30 01:51:30;;;;;;;6.33;3.30;;;16.90;90.70;;;17.09;82.29;98607.63;5086624;28;20474;-76
2023/09/30 01:53:57;;;;;;;7.27;3.70;;;17.00;90.60;;;17.01;82.12;98605.28;5086376;28;20441;-76
2023/09/30 01:56:26;;;;;;;8.97;3.73;;;17.10;90.50;;;17.09;81.77;98607.63;5084373;28;20463;-75
2023/09/30 01:58:54;;;;;;;4.77;3.33;;;17.10;90.40;;;17.18;81.29;98608.88;5085527;28;20455;-75
2023/09/30 02:01:23;;;;;;;5.13;3.30;;;17.20;90.40;;;17.02;82.06;98606.94;5085551;28;20936;-76
2023/09/30 02:03:50;;;;;;;5.07;3.57;;;17.10;90.30;;;17.16;81.63;98610.22;5082144;28;20461;-76
2023/09/30 02:06:17;;;;;;;5.83;3.20;;;17.20;90.40;;;17.11;81.59;98608.22;5082072;28;20453;-77
2023/09/30 02:08:44;;;;;;;6.43;3.57;;;17.20;90.40;;;17.18;81.66;98608.88;5082619;28;20575;-76
2023/09/30 02:11:13;;;;;;;5.80;3.50;;;17.20;90.40;;;17.04;81.81;98611.09;5080591;28;20454;-76
2023/09/30 02:13:42;;;;;;;6.90;3.50;;;17.20;90.30;;;17.21;81.44;98613.88;5083340;28;20448;-76
2023/09/30 02:16:13;;;;;;;5.03;2.97;;;17.20;90.30;;;17.27;81.18;98612.88;5086907;28;20500;-77
2023/09/30 02:18:41;;;;;;;5.70;3.20;;;17.30;90.30;;;17.19;81.56;98602.34;5084115;28;20575;-75
2023/09/30 02:21:08;;;;;;;7.07;3.97;;;17.20;90.30;;;17.18;81.20;98592.50;5080119;28;20456;-76
2023/09/30 02:23:36;;;;;;;5.23;3.93;;;17.30;90.30;;;17.16;81.75;98621.94;5084720;28;20447;-76
2023/09/30 02:26:03;;;;;;;7.00;3.50;;;17.20;90.30;;;17.03;82.63;98619.50;5096418;28;20454;-76
2023/09/30 02:28:32;;;;;;;7.03;4.10;;;17.20;90.40;;;16.70;86.18;98614.47;5082407;28;20462;-76
2023/09/30 02:31:02;;;;;;;5.03;3.30;;;17.00;91.00;;;16.70;86.92;98614.47;5082031;28;20492;-76
2023/09/30 02:33:29;;;;;;;4.23;3.80;;;17.00;91.40;;;16.50;89.54;98611.31;5081781;28;20448;-76
2023/09/30 02:35:56;;;;;;;5.43;3.60;;;16.80;92.10;;;16.62;89.32;98620.31;5080817;28;20898;-76
2023/09/30 02:38:25;;;;;;;5.97;3.47;;;16.80;92.70;;;16.40;91.27;98611.94;5087292;28;20463;-76
2023/09/30 02:40:52;;;;;;;8.23;4.10;;;16.70;93.10;;;16.38;91.95;98614.06;5088986;28;20669;-75
2023/09/30 02:43:19;;;;;;;5.20;3.97;;;16.70;93.60;;;16.47;91.61;98609.91;5087283;28;20458;-76
2023/09/30 02:45:47;;;;;;;6.53;3.70;;;16.70;93.80;;;16.46;92.62;98612.88;5086796;28;20445;-76
2023/09/30 02:48:15;;;;;;;4.90;3.30;;;16.70;94.40;;;16.40;92.89;98615.47;5089489;28;20448;-76
2023/09/30 02:50:45;;;;;;;6.50;3.40;;;16.60;94.30;;;16.39;93.62;98630.19;5088581;28;20732;-76
2023/09/30 02:53:13;;;;;;;5.50;2.90;;;16.60;94.60;;;16.39;93.62;98634.81;5088763;28;20488;-76
2023/09/30 02:55:40;;;;;;;5.73;3.33;;;16.60;94.80;;;16.33;94.49;98624.84;5085344;28;20826;-76
2023/09/30 02:58:09;;;;;;;6.10;3.30;;;16.50;95.30;;;16.37;95.04;98636.94;5088587;28;20460;-76
2023/09/30 03:00:37;;;;;;;3.00;2.47;;;16.50;95.50;;;16.22;95.26;98621.88;5090213;28;20549;-77
2023/09/30 03:03:05;;;;;;;4.17;3.20;;;16.50;95.60;;;16.19;96.08;98635.19;5087337;28;20454;-77
2023/09/30 03:05:34;;;;;;;8.33;3.93;;;16.50;96.00;;;16.09;97.66;98624.88;5089692;28;20463;-76
2023/09/30 03:08:01;;;;;;;3.77;2.83;;;16.40;96.50;;;16.07;98.16;98627.81;5081909;28;21109;-76
2023/09/30 03:10:29;;;;;;;3.97;2.83;;;16.40;97.10;;;15.76;98.65;98558.09;5081685;28;20938;-76
2023/09/30 03:12:56;;;;;;;4.40;3.20;;;16.40;98.40;;;16.08;100.00;98642.28;5088581;28;20467;-77
2023/09/30 03:15:24;;;;;;;2.63;2.40;;;16.30;99.10;;;15.88;100.00;98624.34;5089521;28;20467;-77
2023/09/30 03:17:51;;;;;;;3.93;3.07;;;16.20;99.90;;;15.84;100.00;98637.59;5085087;28;20451;-76
2023/09/30 03:20:20;;;;;;;3.30;2.70;;;16.10;99.90;;;15.86;100.00;98640.09;5080091;28;20456;-75
2023/09/30 03:22:49;;;;;;;4.33;3.30;;;16.10;99.90;;;15.64;100.00;98653.44;5073469;28;20463;-77
2023/09/30 03:25:18;;;;;;;7.90;2.60;;;16.00;99.90;;;15.33;100.00;98653.47;5080217;28;20457;-76
2023/09/30 03:27:46;;;;;;;4.13;2.40;;;15.70;99.90;;;15.05;100.00;98659.47;5084888;28;20889;-76
2023/09/30 03:30:15;;;;;;;4.33;3.10;;;15.50;99.90;;;14.88;100.00;98657.38;5083238;28;20460;-76
2023/09/30 03:32:42;;;;;;;4.20;3.23;;;15.30;99.90;;;14.83;100.00;98662.69;5083591;28;20463;-76
2023/09/30 03:35:15;;;;;;;5.77;3.40;;;15.20;99.90;;;14.72;100.00;98656.13;5088479;28;20956;-77
2023/09/30 03:37:42;;;;;;;4.17;3.03;;;15.10;99.90;;;14.67;100.00;98648.63;5088500;28;20459;-76
2023/09/30 03:40:18;;;;;;;6.23;3.27;;;15.10;99.90;;;14.68;100.00;98666.59;5088633;28;20449;-77
2023/09/30 03:42:49;;;;;;;4.57;3.13;;;15.10;99.90;;;14.81;100.00;98670.25;5079921;28;20591;-76
2023/09/30 03:45:17;;;;;;;7.10;3.83;;;15.10;99.90;;;14.73;100.00;98674.94;5087762;28;20459;-77
2023/09/30 03:47:45;;;;;;;5.80;4.03;;;15.10;99.90;;;14.59;100.00;98689.69;5087415;28;20534;-76
2023/09/30 03:50:14;;;;;;;7.60;4.00;;;15.00;99.90;;;14.37;100.00;98684.69;5087304;28;20535;-76
2023/09/30 03:52:44;;;;;;;8.90;3.80;;;14.90;99.90;;;14.33;100.00;98686.19;5086676;28;20921;-77
2023/09/30 03:55:15;;;;;;;4.20;3.27;;;14.80;99.90;;;14.22;100.00;98681.50;5087022;28;20882;-76
2023/09/30 03:57:42;;;;;;;4.40;3.10;;;14.70;99.90;;;14.17;100.00;98687.59;5087217;28;20549;-76
2023/09/30 04:00:16;;;;;;;3.70;2.87;;;14.60;99.90;;;14.11;100.00;98700.16;5100846;28;20450;-76
2023/09/30 04:02:43;;;;;;;5.30;3.07;;;14.50;99.90;;;14.10;100.00;98701.22;5105437;28;20551;-76
2023/09/30 04:05:14;;;;;;;5.83;3.10;;;14.50;99.90;;;13.98;100.00;98695.69;5105959;28;20442;-75
2023/09/30 04:07:42;;;;;;;3.87;3.00;;;14.50;99.90;;;13.85;100.00;98695.78;5106248;28;20451;-76
2023/09/30 04:10:10;;;;;;;5.10;3.17;;;14.40;99.90;;;13.91;100.00;98707.66;5095043;28;20795;-77
2023/09/30 04:12:39;;;;;;;4.40;3.50;;;14.40;99.90;;;13.94;100.00;98709.94;5087595;28;20438;-76
2023/09/30 04:15:09;;;;;;;5.53;3.30;;;14.30;99.90;;;13.88;100.00;98706.22;5090087;28;20458;-77
2023/09/30 04:17:38;;;;;;;3.80;3.40;;;14.30;99.90;;;13.81;100.00;98694.56;5087132;28;20508;-76
2023/09/30 04:20:09;;;;;;;8.07;3.70;;;14.30;99.90;;;13.76;100.00;98705.25;5079678;28;20504;-76
2023/09/30 04:22:36;;;;;;;9.53;4.80;;;14.20;99.90;;;13.75;100.00;98701.72;5084925;28;20455;-76
2023/09/30 04:25:09;;;;;;;5.93;4.13;;;14.20;99.90;;;13.71;100.00;98705.91;5087080;28;20447;-76
2023/09/30 04:27:36;;;;;;;6.37;4.10;;;14.20;99.90;;;13.72;100.00;98713.00;5080980;28;20447;-76
2023/09/30 04:30:08;;;;;;;6.53;4.40;;;14.10;99.90;;;13.72;100.00;98716.53;5087214;28;20489;-77
2023/09/30 04:32:36;;;;;;;6.23;3.83;;;14.10;99.90;;;13.80;100.00;98709.19;5078064;28;20466;-77
2023/09/30 04:35:04;;;;;;;4.00;3.60;;;14.10;99.90;;;13.90;100.00;98704.09;5086763;28;20467;-77
2023/09/30 04:37:31;;;;;;;8.57;3.97;;;14.20;99.90;;;13.87;100.00;98716.22;5086986;28;20485;-76
2023/09/30 04:39:59;;;;;;;9.33;4.87;;;14.20;99.90;;;13.93;100.00;98719.13;5084663;28;20452;-76
2023/09/30 04:42:26;;;;;;;5.53;3.97;;;14.30;99.90;;;13.75;100.00;98728.88;5087612;28;20570;-77
2023/09/30 04:44:54;;;;;;;6.87;4.37;;;14.20;99.90;;;13.68;100.00;98725.34;5080563;28;20943;-76
2023/09/30 04:47:24;;;;;;;3.77;3.27;;;14.20;99.90;;;13.80;100.00;98737.19;5085357;28;20546;-77
2023/09/30 04:49:52;;;;;;;4.73;3.33;;;14.20;99.90;;;13.76;100.00;98743.25;5085936;28;20491;-76
2023/09/30 04:52:20;;;;;;;6.67;3.97;;;14.20;99.90;;;13.76;100.00;98741.38;5095008;28;20841;-76
2023/09/30 04:54:47;;;;;;;3.80;3.23;;;14.20;99.90;;;13.74;100.00;98754.34;5073939;28;20455;-76
2023/09/30 04:57:14;;;;;;;4.07;3.23;;;14.20;99.90;;;13.64;100.00;98749.38;5100153;28;20733;-78
2023/09/30 04:59:42;;;;;;;7.63;3.30;;;14.10;99.90;;;13.69;100.00;98757.72;5085152;28;20465;-76
2023/09/30 05:02:14;;;;;;;5.87;4.03;;;14.10;99.90;;;13.71;100.00;98749.34;5086743;28;20458;-76
2023/09/30 05:04:43;;;;;;;7.53;4.70;;;14.10;99.90;;;13.54;100.00;98749.84;5084122;28;20850;-76
2023/09/30 05:07:12;;;;;;;4.50;3.10;;;14.00;99.90;;;13.69;100.00;98756.88;5087930;28;20447;-76
2023/09/30 05:09:41;;;;;;;4.37;3.80;;;14.10;99.90;;;13.64;100.00;98762.94;5083476;28;20440;-77
2023/09/30 05:12:08;;;;;;;8.43;3.93;;;14.00;99.90;;;13.67;100.00;98770.69;5098104;28;20457;-77
2023/09/30 05:14:36;;;;;;;5.53;3.83;;;14.00;99.90;;;13.56;100.00;98774.91;5083628;28;20443;-77
2023/09/30 05:17:04;;;;;;;5.30;3.80;;;14.00;99.90;;;13.50;100.00;98778.50;5096103;28;20543;-76
2023/09/30 05:19:32;;;;;;;7.03;3.80;;;14.00;99.90;;;13.11;100.00;98707.00;5097329;28;20519;-76
2023/09/30 05:22:02;;;;;;;5.73;3.70;;;13.90;99.90;;;13.67;100.00;98780.69;5093530;28;20542;-75
2023/09/30 05:24:30;;;;;;;5.70;3.67;;;14.00;99.90;;;13.55;100.00;98784.09;5082968;28;20455;-76
2023/09/30 05:26:57;;;;;;;4.73;3.57;;;13.90;99.90;;;13.60;100.00;98781.59;5082162;28;20451;-76
2023/09/30 05:29:24;;;;;;;5.17;3.83;;;13.90;99.90;;;13.63;100.00;98784.91;5085058;28;20520;-76
2023/09/30 05:31:51;;;;;;;4.87;3.83;;;13.90;99.90;;;13.53;100.00;98786.19;5085051;28;20459;-77
2023/09/30 05:34:18;;;;;;;7.03;5.70;;;13.90;99.90;;;13.49;100.00;98784.97;5083910;28;20463;-77
2023/09/30 05:36:45;;;;;;;7.40;5.23;;;13.90;99.90;;;13.43;100.00;98793.94;5086386;28;20483;-76
2023/09/30 05:39:19;;;;;;;7.70;5.00;;;13.80;99.90;;;13.57;100.00;98798.31;5082727;28;20541;-76
2023/09/30 05:41:47;;;;;;;9.17;4.47;;;13.90;99.90;;;13.49;100.00;98805.84;5085872;28;20503;-76
2023/09/30 05:44:14;;;;;;;7.30;4.63;;;13.80;99.90;;;13.53;100.00;98809.81;5082643;28;20458;-76
2023/09/30 05:46:42;;;;;;;6.33;4.17;;;13.80;99.90;;;13.55;100.00;98808.53;5085753;28;20482;-76
2023/09/30 05:49:13;;;;;;;5.53;4.83;;;13.90;99.90;;;13.51;100.00;98823.59;5083945;28;20451;-76
2023/09/30 05:51:41;;;;;;;5.90;4.57;;;13.80;99.90;;;13.48;100.00;98820.47;5086023;28;20451;-76
2023/09/30 05:54:09;;;;;;;7.47;4.53;;;13.80;99.90;;;13.39;100.00;98811.69;5091596;28;20534;-78
2023/09/30 05:56:38;;;;;;;9.23;4.43;;;13.80;99.90;;;13.54;100.00;98812.28;5083639;28;20481;-78
2023/09/30 05:59:07;;;;;;;4.70;3.90;;;13.80;99.90;;;13.50;100.00;98811.06;5095599;28;20578;-76
2023/09/30 06:01:35;;;;;;;5.83;4.20;;;13.80;99.90;;;13.00;100.00;98760.06;5084560;28;20608;-76
2023/09/30 06:04:04;;;;;;;6.27;4.30;;;13.80;99.90;;;13.43;100.00;98821.09;5083395;28;20459;-76
2023/09/30 06:06:32;;;;;;;5.33;3.93;;;13.80;99.90;;;13.53;100.00;98828.81;5085254;28;20454;-76
2023/09/30 06:08:59;;;;;;;5.63;3.80;;;13.80;99.90;;;13.45;100.00;98827.19;5085698;28;20469;-76
2023/09/30 06:11:28;;;;;;;9.37;5.03;;;13.80;99.90;;;13.31;100.00;98797.34;5097221;28;20457;-76
2023/09/30 06:13:58;;;;;;;6.63;4.60;;;13.80;99.90;;;13.52;100.00;98821.72;5089621;28;20447;-76
2023/09/30 06:16:26;;;;;;;7.87;4.50;;;13.80;99.90;;;13.82;100.00;98816.56;5089694;28;20478;-77
2023/09/30 06:18:54;;;;;;;8.50;5.07;;;13.90;99.90;;;13.86;100.00;98822.38;5085768;28;20461;-77
2023/09/30 06:21:22;;;;;;;6.27;4.80;;;14.00;99.90;;;13.95;100.00;98833.84;5088949;28;20452;-76
2023/09/30 06:23:51;;;;;;;5.57;4.17;;;14.10;99.90;;;14.10;100.00;98828.94;5087974;28;20463;-76
2023/09/30 06:26:20;;;;;;;5.80;4.20;;;14.30;99.90;;;14.12;100.00;98828.72;5090755;28;20768;-76
2023/09/30 06:28:48;;;;;;;9.93;4.60;;;14.30;99.90;;;14.14;100.00;98835.59;5085221;28;20452;-77
2023/09/30 06:31:17;;;;;;;8.17;4.00;;;14.40;99.90;;;14.28;100.00;98840.94;5088556;28;20455;-77
2023/09/30 06:33:44;;;;;;;5.33;4.23;;;14.40;99.90;;;14.45;100.00;98842.06;5087517;28;20469;-76
2023/09/30 06:36:13;;;;;;;6.20;5.13;;;14.60;99.90;;;14.54;100.00;98850.78;5081353;28;20542;-76
2023/09/30 06:38:41;;;;;;;7.17;4.97;;;14.60;99.90;;;14.34;100.00;98850.94;5088701;28;20468;-76
2023/09/30 06:41:09;;;;;;;6.43;4.40;;;14.60;99.90;;;14.43;100.00;98833.31;5088600;28;20451;-76
2023/09/30 06:43:36;;;;;;;9.77;4.70;;;14.70;99.90;;;14.58;100.00;98852.03;5089607;28;20591;-76
2023/09/30 06:46:09;;;;;;;7.47;4.70;;;14.80;99.90;;;14.40;100.00;98847.34;5090010;28;20921;-76
2023/09/30 06:48:40;;;;;;;6.50;4.40;;;14.70;99.90;;;14.55;100.00;98859.78;5089079;28;20920;-76
2023/09/30 06:51:07;;;;;;;9.00;4.40;;;14.70;99.90;;;14.52;100.00;98847.44;5089016;28;20568;-75
2023/09/30 06:53:35;;;;;;;4.53;4.13;;;14.70;99.90;;;14.49;100.00;98860.69;5088742;28;20541;-76
2023/09/30 06:56:08;;;;;;;8.77;4.90;;;14.70;99.90;;;14.41;100.00;98870.75;5084360;28;20461;-76
2023/09/30 06:58:35;;;;;;;5.70;5.10;;;14.60;99.90;;;14.31;100.00;98856.81;5083527;28;20542;-76
2023/09/30 07:01:03;;;;;;;8.77;4.60;;;14.60;99.90;;;14.63;100.00;98875.81;5088893;28;20452;-74
2023/09/30 07:03:32;;;;;;;7.37;4.70;;;14.70;99.90;;;14.83;100.00;98872.16;5086953;28;20458;-75
2023/09/30 07:06:01;;;;;;;7.43;4.60;;;14.90;99.90;;;14.86;100.00;98879.88;5079280;28;20501;-76
2023/09/30 07:08:29;;;;;;;6.73;4.93;;;15.00;99.90;;;14.80;100.00;98865.25;5085571;28;20463;-75
2023/09/30 07:10:57;;;;;;;8.70;6.33;;;15.00;99.90;;;15.12;100.00;98873.34;5080960;28;20491;-75
2023/09/30 07:13:24;;;;;;;6.80;4.33;;;15.10;99.90;;;15.02;100.00;98870.31;5089283;28;20448;-75
2023/09/30 07:15:51;;;;;;;7.23;4.87;;;15.10;99.90;;;14.93;100.00;98872.47;5089086;28;20456;-75
2023/09/30 07:18:19;;;;;;;5.17;4.10;;;15.20;99.90;;;15.13;100.00;98885.88;5101692;28;20476;-76
2023/09/30 07:20:46;;;;;;;9.90;4.80;;;15.30;99.20;;;15.36;98.26;98880.84;5080471;28;23413;-76
2023/09/30 07:23:14;;;;;;;4.50;3.80;;;15.40;98.50;;;15.77;96.87;98876.63;5088833;28;20458;-75
2023/09/30 07:25:42;;;;;;;9.50;4.93;;;15.70;97.90;;;16.01;95.28;98887.69;5083469;28;20451;-75
2023/09/30 07:28:11;;;;;;;4.97;3.73;;;16.00;96.70;;;15.98;91.98;98891.69;5088802;28;20520;-76
2023/09/30 07:30:39;;;;;;;5.03;3.80;;;16.00;94.60;;;16.12;91.84;98886.88;5087628;28;20436;-77
2023/09/30 07:33:07;;;;;;;4.50;3.83;;;16.20;94.60;;;15.61;92.14;98814.59;5083423;28;20461;-75
2023/09/30 07:35:35;;;;;;;4.50;3.67;;;16.20;94.20;;;15.83;93.66;98894.75;5088596;28;20458;-75
2023/09/30 07:38:02;;;;;;;8.50;4.53;;;16.00;94.60;;;15.51;95.45;98907.72;5087150;28;20472;-77
2023/09/30 07:40:31;;;;;;;7.90;4.40;;;15.80;95.10;;;15.61;94.77;98907.19;5086095;28;20455;-75
2023/09/30 07:42:58;;;;;;;5.03;3.47;;;15.80;95.20;;;15.43;94.85;98908.84;5081657;28;20505;-76
2023/09/30 07:45:25;;;;;;;4.60;3.80;;;15.70;95.10;;;15.49;96.21;98915.28;5086730;28;20456;-76
2023/09/30 07:47:53;;;;;;;5.87;3.40;;;15.60;96.10;;;15.42;94.70;98918.09;5087110;28;20459;-76
2023/09/30 07:50:20;;;;;;;9.13;4.03;;;15.60;95.30;;;15.23;96.07;98919.94;5085968;28;20529;-76
2023/09/30 07:52:47;;;;;;;5.73;4.10;;;15.50;95.50;;;15.49;96.40;98921.56;5082868;28;20484;-76
2023/09/30 07:55:14;;;;;;;4.93;4.00;;;15.50;96.60;;;15.56;95.07;98916.88;5085025;28;20442;-76
2023/09/30 07:57:44;;;;;;;6.33;3.67;;;15.60;96.00;;;15.68;93.35;98914.22;5087559;28;20692;-77
2023/09/30 08:00:15;;;;;;;5.63;3.00;;;15.70;95.10;;;15.72;91.83;98914.63;5082138;28;20452;-77
2023/09/30 08:02:43;;;;;;;4.43;3.63;;;15.90;94.20;;;16.09;91.87;98920.06;5086577;28;20436;-76
2023/09/30 08:05:11;;;;;;;4.53;4.13;;;16.00;94.70;;;15.78;89.82;98924.59;5088790;28;20513;-76
2023/09/30 08:07:39;;;;;;;4.80;3.27;;;16.00;93.00;;;15.92;89.30;98921.75;5087879;28;20476;-76
2023/09/30 08:10:12;;;;;;;4.37;3.50;;;16.10;92.80;;;15.99;89.36;98930.66;5079462;28;20451;-77
2023/09/30 08:12:40;;;;;;;5.63;3.40;;;16.10;92.90;;;16.07;89.34;98922.19;5087320;28;20460;-76
2023/09/30 08:15:12;;;;;;;6.53;3.90;;;16.10;93.10;;;16.22;87.62;98929.94;5087937;28;20452;-76
2023/09/30 08:17:39;;;;;;;3.60;2.60;;;16.30;92.70;;;16.07;88.13;98927.63;5086855;28;20986;-77
2023/09/30 08:20:09;;;;;;;4.10;3.30;;;16.30;92.50;;;16.27;87.46;98931.97;5084818;28;20547;-77
2023/09/30 08:22:37;;;;;;;4.83;3.20;;;16.40;92.30;;;16.53;84.88;98925.34;5083580;28;20811;-77
2023/09/30 08:25:07;;;;;;;10.23;3.97;;;16.70;91.80;;;16.90;84.30;98934.44;5085859;28;20791;-77
2023/09/30 08:27:36;;;;;;;5.47;3.37;;;16.90;91.60;;;17.15;81.63;98925.25;5086582;28;20443;-76
2023/09/30 08:30:05;;;;;;;6.10;3.27;;;17.20;91.00;;;17.10;82.30;98929.50;5099634;28;20935;-76
2023/09/30 08:32:35;;;;;;;3.47;3.10;;;17.20;90.90;;;16.99;81.23;98933.88;5085062;28;20838;-76
2023/09/30 08:35:03;;;;;;;8.40;3.90;;;17.20;90.40;;;16.73;82.12;98918.75;5081316;28;20469;-75
2023/09/30 08:37:31;;;;;;;5.83;3.33;;;17.00;90.40;;;16.70;83.86;98936.41;5084617;28;20890;-75
2023/09/30 08:39:58;;;;;;;7.03;3.70;;;16.80;90.80;;;16.71;82.77;98937.25;5085771;28;20445;-76
2023/09/30 08:42:32;;;;;;;4.80;3.87;;;16.90;90.80;;;16.31;82.48;98873.22;5084851;28;20449;-76
2023/09/30 08:45:00;;;;;;;4.40;3.30;;;16.80;90.50;;;16.62;79.52;98936.75;5081842;28;20765;-76
2023/09/30 08:47:28;;;;;;;7.33;3.10;;;16.80;89.80;;;16.37;77.97;98876.88;5085104;28;20776;-77
2023/09/30 08:50:05;;;;;;;5.43;2.33;;;16.90;89.20;;;16.93;76.39;98940.28;5085355;28;20556;-77
2023/09/30 08:52:33;;;;;;;6.17;3.20;;;17.00;88.30;;;16.61;77.29;98934.25;5087496;28;20548;-77
2023/09/30 08:55:02;;;;;;;6.30;2.43;;;16.80;87.70;;;16.73;75.20;98928.81;5086919;28;20458;-76
2023/09/30 08:57:30;;;;;;;5.30;2.70;;;16.90;87.10;;;17.12;74.04;98929.28;5083613;28;20910;-76
2023/09/30 08:59:57;;;;;;;3.60;2.70;;;17.10;86.80;;;16.94;72.87;98919.25;5097568;28;20810;-76
2023/09/30 09:02:24;;;;;;;5.00;2.90;;;17.20;85.90;;;17.12;73.08;98924.63;5087521;28;20498;-76
2023/09/30 09:04:52;;;;;;;3.97;2.47;;;17.20;86.00;;;17.01;74.25;98903.63;5079634;28;20513;-76
2023/09/30 09:07:21;;;;;;;3.17;2.53;;;17.10;86.60;;;17.37;73.70;98928.22;5084567;28;20439;-77
2023/09/30 09:10:07;;;;;;;6.20;3.10;;;17.30;86.60;;;17.82;71.36;98924.84;5085622;28;20692;-76
2023/09/30 09:12:36;;;;;;;3.20;2.80;;;17.80;85.80;;;17.66;71.22;98925.56;5086620;28;20532;-76
2023/09/30 09:15:06;;;;;;;4.97;2.67;;;17.60;85.60;;;18.26;69.87;98918.06;5086479;28;21006;-77
2023/09/30 09:17:44;;;;;;;5.07;3.10;;;18.00;85.50;;;18.27;69.40;98908.78;5085868;28;20473;-76
2023/09/30 09:20:15;;;;;;;2.77;2.30;;;18.10;84.80;;;18.65;66.82;98909.19;5079820;28;20454;-76
2023/09/30 09:22:45;;;;;;;3.77;2.70;;;18.50;84.00;;;18.32;68.56;98917.13;5087945;28;20462;-77
2023/09/30 09:25:12;;;;;;;6.90;2.83;;;18.50;83.40;;;18.16;67.48;98912.41;5083323;28;20451;-77
2023/09/30 09:27:39;;;;;;;4.90;2.50;;;18.30;82.70;;;18.45;67.86;98904.22;5086141;28;20448;-78
2023/09/30 09:30:18;;;;;;;4.60;3.27;;;18.40;83.30;;;18.78;66.82;98910.81;5085876;28;20542;-75
2023/09/30 09:33:03;;;;;;;4.43;3.17;;;18.60;83.10;;;18.94;66.09;98906.41;5083369;28;20523;-77
2023/09/30 09:35:33;;;;;;;3.50;2.77;;;18.80;82.70;;;18.52;66.79;98910.34;5078324;28;20527;-76
2023/09/30 09:38:04;;;;;;;6.70;3.10;;;18.60;82.10;;;18.39;66.50;98895.91;5073547;28;20520;-76
2023/09/30 09:40:33;;;;;;;3.13;2.83;;;18.60;82.10;;;18.62;65.64;98904.22;5084780;28;20858;-76
2023/09/30 09:43:04;;;;;;;4.80;3.47;;;18.70;81.70;;;18.64;65.69;98913.00;5085878;28;20957;-76
2023/09/30 09:45:34;;;;;;;5.80;3.10;;;18.70;81.50;;;18.94;65.19;98918.19;5084923;28;20445;-77
2023/09/30 09:48:04;;;;;;;5.60;2.90;;;18.80;81.70;;;18.63;65.70;98911.34;5087973;28;20482;-75
2023/09/30 09:50:32;;;;;;;4.40;3.30;;;18.60;81.40;;;18.97;64.48;98928.63;5084165;28;20807;-77
2023/09/30 09:53:02;;;;;;;3.30;2.23;;;18.80;81.00;;;18.71;62.61;98912.84;5089913;28;20458;-77
2023/09/30 09:55:30;;;;;;;4.33;2.97;;;18.80;78.80;;;18.94;62.47;98915.47;5089385;28;21013;-77
2023/09/30 09:57:58;;;;;;;4.00;2.83;;;18.80;79.10;;;19.51;61.01;98919.09;5080529;28;20805;-76
2023/09/30 10:00:27;;;;;;;4.33;3.27;;;19.30;78.70;;;19.49;58.88;98913.03;5090391;28;20451;-76
2023/09/30 10:02:54;;;;;;;5.53;2.40;;;19.60;76.80;;;19.31;60.01;98910.56;5087376;28;20479;-77
2023/09/30 10:05:22;;;;;;;4.13;3.10;;;19.40;76.90;;;18.88;59.52;98919.19;5087287;28;20568;-77
2023/09/30 10:07:55;;;;;;;5.53;3.30;;;19.20;75.70;;;18.65;60.93;98910.03;5089019;28;20463;-75
2023/09/30 10:10:25;;;;;;;4.47;2.60;;;18.80;76.90;;;18.63;60.46;98917.66;5085590;28;20535;-76
2023/09/30 10:12:53;;;;;;;6.37;2.50;;;18.80;76.30;;;19.14;60.65;98922.38;5089566;28;20541;-75
2023/09/30 10:15:40;;;;;;;5.90;3.50;;;19.00;77.20;;;18.71;62.27;98921.06;5086579;28;20538;-75
2023/09/30 10:18:09;;;;;;;5.67;3.27;;;18.90;77.50;;;18.26;64.35;98929.00;5086861;28;20585;-76
2023/09/30 10:20:40;;;;;;;5.97;3.47;;;18.40;78.20;;;18.19;65.11;98942.00;5087499;28;20505;-76
2023/09/30 10:23:25;;;;;;;5.07;3.17;;;18.30;78.80;;;18.90;61.87;98940.84;5082456;28;20442;-76